KNTU

Oceana NAS / Apollo Soucek Field Airport

Virginia Beach, Virginia, USA
METAR KNTU 232256Z 24008KT 10SM FEW260 19/04 A2969 RMK AO2 SLP056 T01940039
Observed Flight Rules
Jan-23 @ 22:56 UTC (24 minutes ago) Visual Flight Rules
Wind Visibility Clouds
240° at 8 knots 10 miles
  • Few at 26,000' AGL
Temperatures Readings
Current 19°C / 66°F
Dewpoint 4°C / 39°F
Humidity 37%
Altimeter 29.69" Hg
Pressure 1005.6 hPa
Elevation 7
METAR KNTU 232256Z 24008KT 10SM FEW260 19/04 A2969 RMK AO2 SLP056 T01940039
Observed Flight Rules
Jan-23 @ 22:56 UTC
(24 minutes ago)
VFR
Wind Visibility
240° at 8 knots 10 miles
Clouds
  • Few at 26,000' AGL
Temperature Dewpoint
19°C / 66°F 4°C / 39°F
Humidity Altimeter Pressure
37% 29.69" Hg 1005.6 hPa